sensor_id;sensor_type;location;lat;lon;timestamp;temperature;humidity
70300;HTU21D;57704;51.112;5.878;2023-05-18T00:00:21;11.71;54.39
70300;HTU21D;57704;51.112;5.878;2023-05-18T00:02:48;11.70;54.42
70300;HTU21D;57704;51.112;5.878;2023-05-18T00:05:15;11.67;54.55
70300;HTU21D;57704;51.112;5.878;2023-05-18T00:07:44;11.64;54.36
70300;HTU21D;57704;51.112;5.878;2023-05-18T00:10:11;11.54;54.67
70300;HTU21D;57704;51.112;5.878;2023-05-18T00:12:37;11.55;54.63
70300;HTU21D;57704;51.112;5.878;2023-05-18T00:15:03;11.54;54.69
70300;HTU21D;57704;51.112;5.878;2023-05-18T00:17:30;11.45;54.85
70300;HTU21D;57704;51.112;5.878;2023-05-18T00:19:56;11.38;55.00
70300;HTU21D;57704;51.112;5.878;2023-05-18T00:22:24;11.30;55.10
70300;HTU21D;57704;51.112;5.878;2023-05-18T00:24:51;11.23;55.34
70300;HTU21D;57704;51.112;5.878;2023-05-18T00:27:17;11.22;55.44
70300;HTU21D;57704;51.112;5.878;2023-05-18T00:29:43;11.26;55.33
70300;HTU21D;57704;51.112;5.878;2023-05-18T00:32:11;11.20;55.38
70300;HTU21D;57704;51.112;5.878;2023-05-18T00:34:37;11.19;55.46
70300;HTU21D;57704;51.112;5.878;2023-05-18T00:37:06;11.17;55.48
70300;HTU21D;57704;51.112;5.878;2023-05-18T00:39:31;11.18;55.49
70300;HTU21D;57704;51.112;5.878;2023-05-18T00:41:57;11.14;55.53
70300;HTU21D;57704;51.112;5.878;2023-05-18T00:44:24;11.13;55.61
70300;HTU21D;57704;51.112;5.878;2023-05-18T00:46:50;11.13;55.65
70300;HTU21D;57704;51.112;5.878;2023-05-18T00:49:16;11.09;55.68
70300;HTU21D;57704;51.112;5.878;2023-05-18T00:51:44;11.05;55.78
70300;HTU21D;57704;51.112;5.878;2023-05-18T00:54:11;11.04;55.89
70300;HTU21D;57704;51.112;5.878;2023-05-18T00:56:37;11.01;55.98
70300;HTU21D;57704;51.112;5.878;2023-05-18T00:59:07;10.95;56.07
70300;HTU21D;57704;51.112;5.878;2023-05-18T01:01:36;10.93;56.17
70300;HTU21D;57704;51.112;5.878;2023-05-18T01:04:08;10.88;56.42
70300;HTU21D;57704;51.112;5.878;2023-05-18T01:06:34;10.85;56.42
70300;HTU21D;57704;51.112;5.878;2023-05-18T01:09:03;10.80;56.51
70300;HTU21D;57704;51.112;5.878;2023-05-18T01:28:11;10.48;57.30
70300;HTU21D;57704;51.112;5.878;2023-05-18T01:30:42;10.42;57.63
70300;HTU21D;57704;51.112;5.878;2023-05-18T01:33:13;10.35;57.47
70300;HTU21D;57704;51.112;5.878;2023-05-18T01:35:39;10.37;57.74
70300;HTU21D;57704;51.112;5.878;2023-05-18T01:38:19;10.41;57.55
70300;HTU21D;57704;51.112;5.878;2023-05-18T01:43:32;10.43;57.55
70300;HTU21D;57704;51.112;5.878;2023-05-18T01:46:15;10.45;57.43
70300;HTU21D;57704;51.112;5.878;2023-05-18T01:48:48;10.44;57.42
70300;HTU21D;57704;51.112;5.878;2023-05-18T01:51:19;10.39;57.60
70300;HTU21D;57704;51.112;5.878;2023-05-18T01:53:58;10.38;57.61
70300;HTU21D;57704;51.112;5.878;2023-05-18T01:56:26;10.43;57.51
70300;HTU21D;57704;51.112;5.878;2023-05-18T01:58:52;10.44;57.70
70300;HTU21D;57704;51.112;5.878;2023-05-18T02:01:19;10.44;57.58
70300;HTU21D;57704;51.112;5.878;2023-05-18T02:03:47;10.43;57.64
70300;HTU21D;57704;51.112;5.878;2023-05-18T02:06:13;10.40;57.74
70300;HTU21D;57704;51.112;5.878;2023-05-18T02:08:39;10.38;57.77
70300;HTU21D;57704;51.112;5.878;2023-05-18T02:11:05;10.34;57.70
70300;HTU21D;57704;51.112;5.878;2023-05-18T02:13:31;10.34;57.81
70300;HTU21D;57704;51.112;5.878;2023-05-18T02:15:57;10.26;58.04
70300;HTU21D;57704;51.112;5.878;2023-05-18T02:18:23;10.25;58.19
70300;HTU21D;57704;51.112;5.878;2023-05-18T02:20:58;10.25;58.21
70300;HTU21D;57704;51.112;5.878;2023-05-18T02:23:25;10.26;58.16
70300;HTU21D;57704;51.112;5.878;2023-05-18T02:25:51;10.27;58.09
70300;HTU21D;57704;51.112;5.878;2023-05-18T02:28:23;10.23;58.19
70300;HTU21D;57704;51.112;5.878;2023-05-18T02:30:48;10.18;58.52
70300;HTU21D;57704;51.112;5.878;2023-05-18T02:33:14;10.15;58.58
70300;HTU21D;57704;51.112;5.878;2023-05-18T02:35:42;10.15;58.63
70300;HTU21D;57704;51.112;5.878;2023-05-18T02:38:08;10.12;58.82
70300;HTU21D;57704;51.112;5.878;2023-05-18T02:40:33;10.09;58.80
70300;HTU21D;57704;51.112;5.878;2023-05-18T02:43:00;10.04;58.96
70300;HTU21D;57704;51.112;5.878;2023-05-18T02:45:26;10.04;59.12
70300;HTU21D;57704;51.112;5.878;2023-05-18T02:47:53;9.99;59.14
70300;HTU21D;57704;51.112;5.878;2023-05-18T02:50:19;9.96;59.19
70300;HTU21D;57704;51.112;5.878;2023-05-18T02:52:46;10.01;59.13
70300;HTU21D;57704;51.112;5.878;2023-05-18T02:55:14;10.06;59.23
70300;HTU21D;57704;51.112;5.878;2023-05-18T02:57:53;10.05;59.15
70300;HTU21D;57704;51.112;5.878;2023-05-18T03:00:25;10.07;59.15
70300;HTU21D;57704;51.112;5.878;2023-05-18T03:02:51;10.06;59.19
70300;HTU21D;57704;51.112;5.878;2023-05-18T03:05:18;10.06;59.12
70300;HTU21D;57704;51.112;5.878;2023-05-18T03:07:50;10.01;59.19
70300;HTU21D;57704;51.112;5.878;2023-05-18T03:10:19;9.98;59.28
70300;HTU21D;57704;51.112;5.878;2023-05-18T03:12:45;9.94;59.38
70300;HTU21D;57704;51.112;5.878;2023-05-18T03:15:11;9.94;59.46
70300;HTU21D;57704;51.112;5.878;2023-05-18T03:17:39;9.89;59.40
70300;HTU21D;57704;51.112;5.878;2023-05-18T03:20:08;9.78;59.67
70300;HTU21D;57704;51.112;5.878;2023-05-18T03:22:39;9.76;59.93
70300;HTU21D;57704;51.112;5.878;2023-05-18T03:25:06;9.74;59.94
70300;HTU21D;57704;51.112;5.878;2023-05-18T03:27:33;9.72;59.95
70300;HTU21D;57704;51.112;5.878;2023-05-18T03:29:59;9.75;59.83
70300;HTU21D;57704;51.112;5.878;2023-05-18T03:32:25;9.71;59.86
70300;HTU21D;57704;51.112;5.878;2023-05-18T03:34:54;9.68;60.02
70300;HTU21D;57704;51.112;5.878;2023-05-18T03:37:20;9.67;59.99
70300;HTU21D;57704;51.112;5.878;2023-05-18T03:39:46;9.60;60.02
70300;HTU21D;57704;51.112;5.878;2023-05-18T03:42:13;9.49;60.27
70300;HTU21D;57704;51.112;5.878;2023-05-18T03:44:40;9.45;60.46
70300;HTU21D;57704;51.112;5.878;2023-05-18T03:47:06;9.47;60.54
70300;HTU21D;57704;51.112;5.878;2023-05-18T03:49:33;9.46;60.59
70300;HTU21D;57704;51.112;5.878;2023-05-18T03:52:00;9.48;60.44
70300;HTU21D;57704;51.112;5.878;2023-05-18T03:54:26;9.45;60.51
70300;HTU21D;57704;51.112;5.878;2023-05-18T03:56:52;9.42;60.57
70300;HTU21D;57704;51.112;5.878;2023-05-18T03:59:18;9.38;60.58
70300;HTU21D;57704;51.112;5.878;2023-05-18T04:01:44;9.33;60.67
70300;HTU21D;57704;51.112;5.878;2023-05-18T04:04:10;9.27;61.07
70300;HTU21D;57704;51.112;5.878;2023-05-18T04:06:45;9.23;60.95
70300;HTU21D;57704;51.112;5.878;2023-05-18T04:09:13;9.19;61.19
70300;HTU21D;57704;51.112;5.878;2023-05-18T04:11:42;9.17;61.47
70300;HTU21D;57704;51.112;5.878;2023-05-18T04:14:11;9.18;61.43
70300;HTU21D;57704;51.112;5.878;2023-05-18T04:16:37;9.16;61.45
70300;HTU21D;57704;51.112;5.878;2023-05-18T04:19:03;9.19;61.52
70300;HTU21D;57704;51.112;5.878;2023-05-18T04:21:30;9.20;61.56
70300;HTU21D;57704;51.112;5.878;2023-05-18T04:24:01;9.20;61.45
70300;HTU21D;57704;51.112;5.878;2023-05-18T04:26:33;9.21;61.60
70300;HTU21D;57704;51.112;5.878;2023-05-18T04:29:02;9.27;61.57
70300;HTU21D;57704;51.112;5.878;2023-05-18T04:31:28;9.32;61.42
70300;HTU21D;57704;51.112;5.878;2023-05-18T04:33:55;9.30;61.57
70300;HTU21D;57704;51.112;5.878;2023-05-18T04:36:22;9.30;61.56
70300;HTU21D;57704;51.112;5.878;2023-05-18T04:38:53;9.35;61.67
70300;HTU21D;57704;51.112;5.878;2023-05-18T04:41:26;9.41;61.51
70300;HTU21D;57704;51.112;5.878;2023-05-18T04:43:52;9.40;61.44
70300;HTU21D;57704;51.112;5.878;2023-05-18T04:46:19;9.38;61.59
70300;HTU21D;57704;51.112;5.878;2023-05-18T04:48:47;9.39;61.70
70300;HTU21D;57704;51.112;5.878;2023-05-18T04:51:18;9.44;61.62
70300;HTU21D;57704;51.112;5.878;2023-05-18T04:53:47;9.39;61.74
70300;HTU21D;57704;51.112;5.878;2023-05-18T04:56:18;9.40;61.92
70300;HTU21D;57704;51.112;5.878;2023-05-18T04:58:47;9.39;62.13
70300;HTU21D;57704;51.112;5.878;2023-05-18T05:01:14;9.39;61.88
70300;HTU21D;57704;51.112;5.878;2023-05-18T05:03:41;9.33;62.26
70300;HTU21D;57704;51.112;5.878;2023-05-18T05:06:08;9.40;62.28
70300;HTU21D;57704;51.112;5.878;2023-05-18T05:08:36;9.47;62.28
70300;HTU21D;57704;51.112;5.878;2023-05-18T05:11:02;9.55;62.09
70300;HTU21D;57704;51.112;5.878;2023-05-18T05:13:29;9.67;61.89
70300;HTU21D;57704;51.112;5.878;2023-05-18T05:15:55;9.71;61.65
70300;HTU21D;57704;51.112;5.878;2023-05-18T05:18:21;9.65;61.96
70300;HTU21D;57704;51.112;5.878;2023-05-18T05:20:49;9.65;62.20
70300;HTU21D;57704;51.112;5.878;2023-05-18T05:23:15;9.64;62.09
70300;HTU21D;57704;51.112;5.878;2023-05-18T05:25:43;9.70;62.29
70300;HTU21D;57704;51.112;5.878;2023-05-18T05:28:09;9.80;62.21
70300;HTU21D;57704;51.112;5.878;2023-05-18T05:30:36;9.90;62.06
70300;HTU21D;57704;51.112;5.878;2023-05-18T05:33:02;9.97;61.89
70300;HTU21D;57704;51.112;5.878;2023-05-18T05:35:28;10.05;61.76
70300;HTU21D;57704;51.112;5.878;2023-05-18T05:37:54;10.15;61.66
70300;HTU21D;57704;51.112;5.878;2023-05-18T05:40:20;10.22;61.71
70300;HTU21D;57704;51.112;5.878;2023-05-18T05:42:46;10.34;61.50
70300;HTU21D;57704;51.112;5.878;2023-05-18T05:45:12;10.39;61.30
70300;HTU21D;57704;51.112;5.878;2023-05-18T05:47:44;10.46;61.28
70300;HTU21D;57704;51.112;5.878;2023-05-18T05:50:11;10.51;61.24
70300;HTU21D;57704;51.112;5.878;2023-05-18T05:52:37;10.56;61.11
70300;HTU21D;57704;51.112;5.878;2023-05-18T05:55:05;10.64;60.89
70300;HTU21D;57704;51.112;5.878;2023-05-18T05:57:31;10.66;60.89
70300;HTU21D;57704;51.112;5.878;2023-05-18T05:59:58;10.70;60.87
70300;HTU21D;57704;51.112;5.878;2023-05-18T06:02:25;10.70;61.00
70300;HTU21D;57704;51.112;5.878;2023-05-18T06:04:51;10.81;60.86
70300;HTU21D;57704;51.112;5.878;2023-05-18T06:07:17;10.87;60.74
70300;HTU21D;57704;51.112;5.878;2023-05-18T06:09:43;10.94;60.61
70300;HTU21D;57704;51.112;5.878;2023-05-18T06:12:09;10.97;60.54
70300;HTU21D;57704;51.112;5.878;2023-05-18T06:14:35;10.97;60.41
70300;HTU21D;57704;51.112;5.878;2023-05-18T06:17:02;10.96;60.57
70300;HTU21D;57704;51.112;5.878;2023-05-18T06:19:28;10.98;60.64
70300;HTU21D;57704;51.112;5.878;2023-05-18T06:21:54;11.00;60.53
70300;HTU21D;57704;51.112;5.878;2023-05-18T06:24:21;11.03;60.48
70300;HTU21D;57704;51.112;5.878;2023-05-18T06:27:13;11.07;60.48
70300;HTU21D;57704;51.112;5.878;2023-05-18T06:29:46;11.19;60.46
70300;HTU21D;57704;51.112;5.878;2023-05-18T06:32:13;11.32;60.35
70300;HTU21D;57704;51.112;5.878;2023-05-18T06:34:41;11.45;60.32
70300;HTU21D;57704;51.112;5.878;2023-05-18T06:37:10;11.66;59.90
70300;HTU21D;57704;51.112;5.878;2023-05-18T06:39:37;11.73;59.77
70300;HTU21D;57704;51.112;5.878;2023-05-18T06:42:03;11.91;59.86
70300;HTU21D;57704;51.112;5.878;2023-05-18T06:44:32;12.17;59.41
70300;HTU21D;57704;51.112;5.878;2023-05-18T06:47:10;12.34;59.05
70300;HTU21D;57704;51.112;5.878;2023-05-18T06:49:37;12.56;58.61
70300;HTU21D;57704;51.112;5.878;2023-05-18T06:52:04;12.80;58.23
70300;HTU21D;57704;51.112;5.878;2023-05-18T06:54:31;12.94;58.08
70300;HTU21D;57704;51.112;5.878;2023-05-18T06:56:57;13.15;57.55
70300;HTU21D;57704;51.112;5.878;2023-05-18T06:59:24;13.24;57.26
70300;HTU21D;57704;51.112;5.878;2023-05-18T07:01:50;13.33;57.24
70300;HTU21D;57704;51.112;5.878;2023-05-18T07:04:16;13.49;56.87
70300;HTU21D;57704;51.112;5.878;2023-05-18T07:06:44;13.68;57.00
70300;HTU21D;57704;51.112;5.878;2023-05-18T07:09:11;13.84;56.69
70300;HTU21D;57704;51.112;5.878;2023-05-18T07:11:37;14.10;56.83
70300;HTU21D;57704;51.112;5.878;2023-05-18T07:14:05;14.35;56.80
70300;HTU21D;57704;51.112;5.878;2023-05-18T07:16:31;14.56;56.79
70300;HTU21D;57704;51.112;5.878;2023-05-18T07:18:57;14.72;56.85
70300;HTU21D;57704;51.112;5.878;2023-05-18T07:21:24;14.94;56.70
70300;HTU21D;57704;51.112;5.878;2023-05-18T07:23:51;15.26;57.12
70300;HTU21D;57704;51.112;5.878;2023-05-18T07:26:18;15.49;55.93
70300;HTU21D;57704;51.112;5.878;2023-05-18T07:28:48;15.75;55.70
70300;HTU21D;57704;51.112;5.878;2023-05-18T07:31:14;16.14;55.68
70300;HTU21D;57704;51.112;5.878;2023-05-18T07:33:43;16.31;53.33
70300;HTU21D;57704;51.112;5.878;2023-05-18T07:36:09;16.28;51.68
70300;HTU21D;57704;51.112;5.878;2023-05-18T07:38:38;16.08;51.77
70300;HTU21D;57704;51.112;5.878;2023-05-18T07:41:04;16.17;52.09
70300;HTU21D;57704;51.112;5.878;2023-05-18T07:43:30;16.44;51.56
70300;HTU21D;57704;51.112;5.878;2023-05-18T07:45:56;16.64;50.77
70300;HTU21D;57704;51.112;5.878;2023-05-18T07:48:31;17.17;50.30
70300;HTU21D;57704;51.112;5.878;2023-05-18T07:50:57;17.69;48.44
70300;HTU21D;57704;51.112;5.878;2023-05-18T07:53:26;17.96;48.15
70300;HTU21D;57704;51.112;5.878;2023-05-18T07:55:53;18.32;47.37
70300;HTU21D;57704;51.112;5.878;2023-05-18T07:58:19;18.58;46.06
70300;HTU21D;57704;51.112;5.878;2023-05-18T08:00:46;18.59;44.99
70300;HTU21D;57704;51.112;5.878;2023-05-18T08:03:12;18.50;45.61
70300;HTU21D;57704;51.112;5.878;2023-05-18T08:05:38;18.52;45.32
70300;HTU21D;57704;51.112;5.878;2023-05-18T08:08:04;18.44;43.52
70300;HTU21D;57704;51.112;5.878;2023-05-18T08:10:30;18.43;45.27
70300;HTU21D;57704;51.112;5.878;2023-05-18T08:12:59;18.66;44.79
70300;HTU21D;57704;51.112;5.878;2023-05-18T08:15:25;18.61;44.05
70300;HTU21D;57704;51.112;5.878;2023-05-18T08:17:51;18.80;43.75
70300;HTU21D;57704;51.112;5.878;2023-05-18T08:20:17;18.83;43.74
70300;HTU21D;57704;51.112;5.878;2023-05-18T08:22:43;19.14;43.42
70300;HTU21D;57704;51.112;5.878;2023-05-18T08:25:11;19.31;42.77
70300;HTU21D;57704;51.112;5.878;2023-05-18T08:27:41;19.54;42.47
70300;HTU21D;57704;51.112;5.878;2023-05-18T08:30:07;19.66;41.16
70300;HTU21D;57704;51.112;5.878;2023-05-18T08:32:33;19.65;41.45
70300;HTU21D;57704;51.112;5.878;2023-05-18T08:35:05;19.99;41.55
70300;HTU21D;57704;51.112;5.878;2023-05-18T08:37:33;20.28;39.72
70300;HTU21D;57704;51.112;5.878;2023-05-18T08:40:03;19.88;39.27
70300;HTU21D;57704;51.112;5.878;2023-05-18T08:42:38;19.52;40.71
70300;HTU21D;57704;51.112;5.878;2023-05-18T08:45:17;19.54;40.82
70300;HTU21D;57704;51.112;5.878;2023-05-18T08:47:48;19.65;40.72
70300;HTU21D;57704;51.112;5.878;2023-05-18T08:50:17;19.99;39.95
70300;HTU21D;57704;51.112;5.878;2023-05-18T08:52:54;19.97;39.87
70300;HTU21D;57704;51.112;5.878;2023-05-18T08:55:22;20.18;40.13
70300;HTU21D;57704;51.112;5.878;2023-05-18T08:57:53;20.42;39.70
70300;HTU21D;57704;51.112;5.878;2023-05-18T09:00:24;20.55;38.54
70300;HTU21D;57704;51.112;5.878;2023-05-18T09:02:53;20.51;38.38
70300;HTU21D;57704;51.112;5.878;2023-05-18T09:05:20;20.35;38.09
70300;HTU21D;57704;51.112;5.878;2023-05-18T09:07:49;20.29;38.91
70300;HTU21D;57704;51.112;5.878;2023-05-18T09:10:17;20.45;39.01
70300;HTU21D;57704;51.112;5.878;2023-05-18T09:12:45;20.75;38.49
70300;HTU21D;57704;51.112;5.878;2023-05-18T09:15:15;21.06;37.79
70300;HTU21D;57704;51.112;5.878;2023-05-18T09:17:41;21.14;37.43
70300;HTU21D;57704;51.112;5.878;2023-05-18T09:20:07;21.27;37.15
70300;HTU21D;57704;51.112;5.878;2023-05-18T09:22:34;21.31;36.42
70300;HTU21D;57704;51.112;5.878;2023-05-18T09:25:08;21.07;36.34
70300;HTU21D;57704;51.112;5.878;2023-05-18T09:27:35;21.24;36.14
70300;HTU21D;57704;51.112;5.878;2023-05-18T09:30:02;21.08;35.35
70300;HTU21D;57704;51.112;5.878;2023-05-18T09:32:33;20.85;35.75
70300;HTU21D;57704;51.112;5.878;2023-05-18T09:35:06;20.66;35.39
70300;HTU21D;57704;51.112;5.878;2023-05-18T09:37:36;20.46;35.06
70300;HTU21D;57704;51.112;5.878;2023-05-18T09:40:06;20.39;35.62
70300;HTU21D;57704;51.112;5.878;2023-05-18T09:45:16;20.14;35.21
70300;HTU21D;57704;51.112;5.878;2023-05-18T09:47:43;20.01;35.13
70300;HTU21D;57704;51.112;5.878;2023-05-18T09:50:10;19.89;35.08
70300;HTU21D;57704;51.112;5.878;2023-05-18T09:52:45;19.76;35.56
70300;HTU21D;57704;51.112;5.878;2023-05-18T09:55:14;19.94;35.44
70300;HTU21D;57704;51.112;5.878;2023-05-18T09:57:43;20.16;34.71
70300;HTU21D;57704;51.112;5.878;2023-05-18T10:00:10;20.19;34.53
70300;HTU21D;57704;51.112;5.878;2023-05-18T10:02:39;20.36;34.47
70300;HTU21D;57704;51.112;5.878;2023-05-18T10:05:26;20.61;34.52
70300;HTU21D;57704;51.112;5.878;2023-05-18T10:07:56;20.51;33.77
70300;HTU21D;57704;51.112;5.878;2023-05-18T10:10:26;20.17;34.29
70300;HTU21D;57704;51.112;5.878;2023-05-18T10:12:54;20.14;34.85
70300;HTU21D;57704;51.112;5.878;2023-05-18T10:15:23;20.46;34.55
70300;HTU21D;57704;51.112;5.878;2023-05-18T10:17:52;20.63;34.13
70300;HTU21D;57704;51.112;5.878;2023-05-18T10:20:21;20.74;34.48
70300;HTU21D;57704;51.112;5.878;2023-05-18T10:22:49;21.05;34.12
70300;HTU21D;57704;51.112;5.878;2023-05-18T10:25:22;21.52;33.14
70300;HTU21D;57704;51.112;5.878;2023-05-18T10:27:52;21.75;32.60
70300;HTU21D;57704;51.112;5.878;2023-05-18T10:30:21;21.87;32.93
70300;HTU21D;57704;51.112;5.878;2023-05-18T10:32:47;22.35;32.47
70300;HTU21D;57704;51.112;5.878;2023-05-18T10:35:15;22.70;31.93
70300;HTU21D;57704;51.112;5.878;2023-05-18T10:37:45;22.96;31.05
70300;HTU21D;57704;51.112;5.878;2023-05-18T10:40:16;22.85;31.16
70300;HTU21D;57704;51.112;5.878;2023-05-18T10:42:47;22.87;31.17
70300;HTU21D;57704;51.112;5.878;2023-05-18T10:45:15;23.10;31.19
70300;HTU21D;57704;51.112;5.878;2023-05-18T10:47:43;23.31;30.79
70300;HTU21D;57704;51.112;5.878;2023-05-18T10:50:09;23.43;30.64
70300;HTU21D;57704;51.112;5.878;2023-05-18T10:52:36;23.50;30.57
70300;HTU21D;57704;51.112;5.878;2023-05-18T10:55:03;23.64;30.31
70300;HTU21D;57704;51.112;5.878;2023-05-18T10:57:38;23.69;29.87
70300;HTU21D;57704;51.112;5.878;2023-05-18T11:00:07;23.77;29.01
70300;HTU21D;57704;51.112;5.878;2023-05-18T11:02:38;23.82;28.77
70300;HTU21D;57704;51.112;5.878;2023-05-18T11:05:08;23.66;29.16
70300;HTU21D;57704;51.112;5.878;2023-05-18T11:07:35;23.54;29.45
70300;HTU21D;57704;51.112;5.878;2023-05-18T11:10:07;23.65;29.63
70300;HTU21D;57704;51.112;5.878;2023-05-18T11:12:36;23.88;29.51
70300;HTU21D;57704;51.112;5.878;2023-05-18T11:15:03;23.80;28.91
70300;HTU21D;57704;51.112;5.878;2023-05-18T11:17:30;23.25;29.84
70300;HTU21D;57704;51.112;5.878;2023-05-18T11:27:56;23.94;27.21
70300;HTU21D;57704;51.112;5.878;2023-05-18T11:33:11;24.18;26.73
70300;HTU21D;57704;51.112;5.878;2023-05-18T11:36:12;24.21;26.55
70300;HTU21D;57704;51.112;5.878;2023-05-18T11:41:37;24.86;25.76
70300;HTU21D;57704;51.112;5.878;2023-05-18T11:47:02;25.31;25.19
70300;HTU21D;57704;51.112;5.878;2023-05-18T11:49:32;25.82;25.06
70300;HTU21D;57704;51.112;5.878;2023-05-18T11:54:53;26.39;24.14
70300;HTU21D;57704;51.112;5.878;2023-05-18T11:57:24;26.13;23.88
70300;HTU21D;57704;51.112;5.878;2023-05-18T11:59:58;25.58;24.77
70300;HTU21D;57704;51.112;5.878;2023-05-18T12:02:31;25.61;25.30
70300;HTU21D;57704;51.112;5.878;2023-05-18T12:04:58;26.19;25.04
70300;HTU21D;57704;51.112;5.878;2023-05-18T12:07:26;26.79;24.50
70300;HTU21D;57704;51.112;5.878;2023-05-18T12:10:05;27.08;23.66
70300;HTU21D;57704;51.112;5.878;2023-05-18T12:12:33;26.98;23.98
70300;HTU21D;57704;51.112;5.878;2023-05-18T12:15:07;27.53;23.60
70300;HTU21D;57704;51.112;5.878;2023-05-18T12:17:43;27.65;22.95
70300;HTU21D;57704;51.112;5.878;2023-05-18T12:20:20;27.45;22.88
70300;HTU21D;57704;51.112;5.878;2023-05-18T12:22:48;27.55;23.32
70300;HTU21D;57704;51.112;5.878;2023-05-18T12:25:18;27.74;23.06
70300;HTU21D;57704;51.112;5.878;2023-05-18T12:27:45;27.71;22.89
70300;HTU21D;57704;51.112;5.878;2023-05-18T12:35:11;27.34;22.67
70300;HTU21D;57704;51.112;5.878;2023-05-18T12:37:44;27.08;23.30
70300;HTU21D;57704;51.112;5.878;2023-05-18T12:40:13;27.13;22.65
70300;HTU21D;57704;51.112;5.878;2023-05-18T12:42:49;27.13;23.03
70300;HTU21D;57704;51.112;5.878;2023-05-18T12:45:25;27.15;23.22
70300;HTU21D;57704;51.112;5.878;2023-05-18T12:47:51;27.38;23.20
70300;HTU21D;57704;51.112;5.878;2023-05-18T12:50:19;26.89;22.69
70300;HTU21D;57704;51.112;5.878;2023-05-18T12:52:49;26.35;23.46
70300;HTU21D;57704;51.112;5.878;2023-05-18T12:55:20;26.13;24.22
70300;HTU21D;57704;51.112;5.878;2023-05-18T12:58:01;25.73;24.24
70300;HTU21D;57704;51.112;5.878;2023-05-18T13:00:35;25.48;25.19
70300;HTU21D;57704;51.112;5.878;2023-05-18T13:03:09;25.42;25.25
70300;HTU21D;57704;51.112;5.878;2023-05-18T13:05:35;25.52;24.93
70300;HTU21D;57704;51.112;5.878;2023-05-18T13:08:02;25.27;25.08
70300;HTU21D;57704;51.112;5.878;2023-05-18T13:10:31;25.14;25.62
70300;HTU21D;57704;51.112;5.878;2023-05-18T13:12:57;25.22;25.51
70300;HTU21D;57704;51.112;5.878;2023-05-18T13:15:35;25.22;25.65
70300;HTU21D;57704;51.112;5.878;2023-05-18T13:18:06;25.20;25.62
70300;HTU21D;57704;51.112;5.878;2023-05-18T13:20:44;25.31;25.30
70300;HTU21D;57704;51.112;5.878;2023-05-18T13:23:16;25.40;25.23
70300;HTU21D;57704;51.112;5.878;2023-05-18T13:25:43;25.17;25.14
70300;HTU21D;57704;51.112;5.878;2023-05-18T13:28:11;25.06;25.65
70300;HTU21D;57704;51.112;5.878;2023-05-18T13:30:37;24.97;25.88
70300;HTU21D;57704;51.112;5.878;2023-05-18T13:33:07;24.95;25.60
70300;HTU21D;57704;51.112;5.878;2023-05-18T13:35:38;24.70;25.92
70300;HTU21D;57704;51.112;5.878;2023-05-18T13:38:04;24.51;26.38
70300;HTU21D;57704;51.112;5.878;2023-05-18T13:40:31;24.16;26.30
70300;HTU21D;57704;51.112;5.878;2023-05-18T13:42:57;23.68;27.07
70300;HTU21D;57704;51.112;5.878;2023-05-18T13:45:22;23.56;28.06
70300;HTU21D;57704;51.112;5.878;2023-05-18T13:47:49;23.77;27.67
70300;HTU21D;57704;51.112;5.878;2023-05-18T13:50:16;23.67;27.63
70300;HTU21D;57704;51.112;5.878;2023-05-18T13:52:43;23.46;27.85
70300;HTU21D;57704;51.112;5.878;2023-05-18T13:55:08;22.99;28.05
70300;HTU21D;57704;51.112;5.878;2023-05-18T13:57:35;22.85;28.39
70300;HTU21D;57704;51.112;5.878;2023-05-18T14:00:01;22.92;28.42
70300;HTU21D;57704;51.112;5.878;2023-05-18T14:02:41;22.83;28.34
70300;HTU21D;57704;51.112;5.878;2023-05-18T14:05:08;22.61;28.96
70300;HTU21D;57704;51.112;5.878;2023-05-18T14:07:35;22.47;29.31
70300;HTU21D;57704;51.112;5.878;2023-05-18T14:10:04;22.53;29.16
70300;HTU21D;57704;51.112;5.878;2023-05-18T14:12:34;22.51;29.57
70300;HTU21D;57704;51.112;5.878;2023-05-18T14:15:01;22.48;29.31
70300;HTU21D;57704;51.112;5.878;2023-05-18T14:17:26;22.33;29.48
70300;HTU21D;57704;51.112;5.878;2023-05-18T14:19:55;22.20;30.00
70300;HTU21D;57704;51.112;5.878;2023-05-18T14:22:21;22.24;30.04
70300;HTU21D;57704;51.112;5.878;2023-05-18T14:24:47;22.40;29.81
70300;HTU21D;57704;51.112;5.878;2023-05-18T14:27:14;22.35;29.90
70300;HTU21D;57704;51.112;5.878;2023-05-18T14:29:41;22.27;29.60
70300;HTU21D;57704;51.112;5.878;2023-05-18T14:32:07;22.18;30.23
70300;HTU21D;57704;51.112;5.878;2023-05-18T14:34:33;22.38;30.24
70300;HTU21D;57704;51.112;5.878;2023-05-18T14:36:59;22.52;29.90
70300;HTU21D;57704;51.112;5.878;2023-05-18T14:39:25;22.53;30.17
70300;HTU21D;57704;51.112;5.878;2023-05-18T14:41:50;22.47;29.92
70300;HTU21D;57704;51.112;5.878;2023-05-18T14:44:16;22.11;30.61
70300;HTU21D;57704;51.112;5.878;2023-05-18T14:46:43;22.02;31.01
70300;HTU21D;57704;51.112;5.878;2023-05-18T14:49:09;22.06;30.93
70300;HTU21D;57704;51.112;5.878;2023-05-18T14:51:35;21.95;31.26
70300;HTU21D;57704;51.112;5.878;2023-05-18T14:54:01;21.96;31.03
70300;HTU21D;57704;51.112;5.878;2023-05-18T14:56:27;21.61;31.38
70300;HTU21D;57704;51.112;5.878;2023-05-18T14:58:53;21.44;31.48
70300;HTU21D;57704;51.112;5.878;2023-05-18T15:01:19;21.25;31.97
70300;HTU21D;57704;51.112;5.878;2023-05-18T15:03:45;21.21;32.25
70300;HTU21D;57704;51.112;5.878;2023-05-18T15:06:11;21.32;32.56
70300;HTU21D;57704;51.112;5.878;2023-05-18T15:08:36;21.45;31.95
70300;HTU21D;57704;51.112;5.878;2023-05-18T15:11:02;21.43;31.67
70300;HTU21D;57704;51.112;5.878;2023-05-18T15:13:28;21.30;31.99
70300;HTU21D;57704;51.112;5.878;2023-05-18T15:15:54;21.33;32.38
70300;HTU21D;57704;51.112;5.878;2023-05-18T15:18:20;21.46;32.06
70300;HTU21D;57704;51.112;5.878;2023-05-18T15:20:45;21.47;31.83
70300;HTU21D;57704;51.112;5.878;2023-05-18T15:23:12;21.46;31.98
70300;HTU21D;57704;51.112;5.878;2023-05-18T15:25:38;21.44;31.95
70300;HTU21D;57704;51.112;5.878;2023-05-18T15:28:06;21.43;31.92
70300;HTU21D;57704;51.112;5.878;2023-05-18T15:30:32;21.37;32.09
70300;HTU21D;57704;51.112;5.878;2023-05-18T15:32:59;21.36;32.11
70300;HTU21D;57704;51.112;5.878;2023-05-18T15:35:27;21.43;32.30
70300;HTU21D;57704;51.112;5.878;2023-05-18T15:37:54;21.50;32.31
70300;HTU21D;57704;51.112;5.878;2023-05-18T15:40:23;21.49;31.80
70300;HTU21D;57704;51.112;5.878;2023-05-18T15:42:49;21.42;32.28
70300;HTU21D;57704;51.112;5.878;2023-05-18T15:45:15;21.51;32.22
70300;HTU21D;57704;51.112;5.878;2023-05-18T15:47:40;21.49;32.22
70300;HTU21D;57704;51.112;5.878;2023-05-18T15:50:12;21.52;32.40
70300;HTU21D;57704;51.112;5.878;2023-05-18T15:52:38;21.63;32.26
70300;HTU21D;57704;51.112;5.878;2023-05-18T15:55:04;21.72;31.88
70300;HTU21D;57704;51.112;5.878;2023-05-18T15:57:30;21.75;31.77
70300;HTU21D;57704;51.112;5.878;2023-05-18T15:59:57;21.72;31.54
70300;HTU21D;57704;51.112;5.878;2023-05-18T16:02:23;21.62;31.63
70300;HTU21D;57704;51.112;5.878;2023-05-18T16:04:49;21.62;31.63
70300;HTU21D;57704;51.112;5.878;2023-05-18T16:07:15;21.47;32.06
70300;HTU21D;57704;51.112;5.878;2023-05-18T16:09:41;21.54;32.12